createdAt,value
2022-08-26T00:00:21.600Z,24.20
2022-08-26T00:02:50.111Z,24.20
2022-08-26T00:05:18.680Z,24.20
2022-08-26T00:07:47.151Z,24.10
2022-08-26T00:10:16.124Z,24.10
2022-08-26T00:12:45.932Z,24.00
2022-08-26T00:15:19.075Z,24.00
2022-08-26T00:17:51.619Z,24.00
2022-08-26T00:20:24.309Z,23.90
2022-08-26T00:22:55.089Z,24.00
2022-08-26T00:25:24.724Z,23.90
2022-08-26T00:27:53.241Z,24.00
2022-08-26T00:30:24.852Z,24.00
2022-08-26T00:32:58.479Z,24.10
2022-08-26T00:35:29.190Z,24.20
2022-08-26T00:37:58.960Z,24.10
2022-08-26T00:40:31.300Z,24.00
2022-08-26T00:43:00.750Z,24.00
2022-08-26T00:45:33.088Z,23.90
2022-08-26T00:48:06.572Z,23.90
2022-08-26T00:50:38.927Z,23.80
2022-08-26T00:53:24.205Z,23.80
2022-08-26T00:55:59.130Z,23.80
2022-08-26T00:58:34.065Z,23.80
2022-08-26T01:01:03.410Z,23.80
2022-08-26T01:03:35.968Z,23.70
2022-08-26T01:06:12.344Z,23.70
2022-08-26T01:08:42.347Z,23.80
2022-08-26T01:11:12.456Z,23.70
2022-08-26T01:13:42.322Z,23.60
2022-08-26T01:16:15.726Z,23.60
2022-08-26T01:18:46.925Z,23.60
2022-08-26T01:21:22.107Z,23.60
2022-08-26T01:23:57.356Z,23.60
2022-08-26T01:26:30.677Z,23.70
2022-08-26T01:29:02.984Z,23.60
2022-08-26T01:31:43.357Z,23.50
2022-08-26T01:34:17.527Z,23.50
2022-08-26T01:36:51.394Z,23.60
2022-08-26T01:39:22.020Z,23.60
2022-08-26T01:41:53.734Z,23.60
2022-08-26T01:44:25.947Z,23.60
2022-08-26T01:46:55.903Z,23.60
2022-08-26T01:49:26.271Z,23.60
2022-08-26T01:51:57.522Z,23.70
2022-08-26T01:54:28.028Z,23.70
2022-08-26T01:56:57.070Z,23.70
2022-08-26T01:59:26.627Z,23.70
2022-08-26T02:01:55.326Z,23.70
2022-08-26T02:04:27.780Z,23.70
2022-08-26T02:06:57.888Z,23.80
2022-08-26T02:09:29.314Z,23.80
2022-08-26T02:12:01.388Z,23.70
2022-08-26T02:14:34.840Z,23.80
2022-08-26T02:17:07.203Z,23.80
2022-08-26T02:19:40.516Z,23.80
2022-08-26T02:22:13.962Z,23.80
2022-08-26T02:24:52.794Z,23.70
2022-08-26T02:27:32.027Z,23.70
2022-08-26T02:30:08.669Z,23.70
2022-08-26T02:32:40.202Z,23.70
2022-08-26T02:35:11.418Z,23.70
2022-08-26T02:37:41.859Z,23.70
2022-08-26T02:40:14.441Z,23.70
2022-08-26T02:42:43.540Z,23.60
2022-08-26T02:45:12.920Z,23.60
2022-08-26T02:47:41.643Z,23.60
2022-08-26T02:50:11.000Z,23.50
2022-08-26T02:52:39.534Z,23.50
2022-08-26T02:55:09.617Z,23.50
2022-08-26T02:57:39.578Z,23.50
2022-08-26T03:00:12.059Z,23.50
2022-08-26T03:02:40.579Z,23.50
2022-08-26T03:05:09.953Z,23.40
2022-08-26T03:07:38.575Z,23.30
2022-08-26T03:10:08.904Z,23.30
2022-08-26T03:12:39.895Z,23.30
2022-08-26T03:15:17.538Z,23.30
2022-08-26T03:17:47.892Z,23.30
2022-08-26T03:20:17.340Z,23.30
2022-08-26T03:22:47.161Z,23.30
2022-08-26T03:25:18.606Z,23.20
2022-08-26T03:27:48.511Z,23.20
2022-08-26T03:30:35.100Z,23.20
2022-08-26T03:33:04.495Z,23.20
2022-08-26T03:35:34.303Z,23.20
2022-08-26T03:38:03.468Z,23.20
2022-08-26T03:40:33.853Z,23.20
2022-08-26T03:43:04.585Z,23.10
2022-08-26T03:45:33.412Z,23.10
2022-08-26T03:48:02.056Z,23.10
2022-08-26T03:50:31.174Z,23.10
2022-08-26T03:53:04.208Z,23.10
2022-08-26T03:55:35.996Z,23.00
2022-08-26T03:58:06.416Z,23.10
2022-08-26T04:00:35.026Z,23.30
2022-08-26T04:03:04.754Z,23.30
2022-08-26T04:05:33.592Z,23.30
2022-08-26T04:08:02.814Z,23.30
2022-08-26T04:10:31.358Z,23.30
2022-08-26T04:13:00.514Z,23.30
2022-08-26T04:15:30.635Z,23.20
2022-08-26T04:17:59.115Z,23.10
2022-08-26T04:20:27.875Z,23.10
2022-08-26T04:22:56.660Z,23.00
2022-08-26T04:25:25.593Z,23.10
2022-08-26T04:27:54.039Z,23.00
2022-08-26T04:30:23.168Z,23.00
2022-08-26T04:32:53.923Z,23.00
2022-08-26T04:35:25.775Z,23.10
2022-08-26T04:37:55.724Z,23.10
2022-08-26T04:40:26.667Z,23.10
2022-08-26T04:42:55.696Z,23.10
2022-08-26T04:45:24.558Z,23.20
2022-08-26T04:47:57.599Z,23.30
2022-08-26T04:50:27.076Z,23.30
2022-08-26T04:52:56.508Z,23.30
2022-08-26T04:55:38.175Z,23.40
2022-08-26T04:58:10.391Z,23.50
2022-08-26T05:00:39.993Z,23.50
2022-08-26T05:03:10.814Z,23.60
2022-08-26T05:05:41.373Z,23.60
2022-08-26T05:08:11.424Z,23.60
2022-08-26T05:10:44.401Z,23.70
2022-08-26T05:13:15.500Z,24.00
2022-08-26T05:15:45.256Z,24.30
2022-08-26T05:18:17.722Z,24.40
2022-08-26T05:20:51.155Z,24.50
2022-08-26T05:23:23.661Z,24.50
2022-08-26T05:25:58.899Z,24.50
2022-08-26T05:28:30.667Z,24.40
2022-08-26T05:30:59.143Z,24.40
2022-08-26T05:33:30.401Z,24.40
2022-08-26T05:35:58.876Z,24.40
2022-08-26T05:38:30.458Z,24.40
2022-08-26T05:40:59.128Z,24.50
2022-08-26T05:43:28.846Z,24.40
2022-08-26T05:46:07.072Z,24.50
2022-08-26T05:48:38.287Z,24.50
2022-08-26T05:51:09.733Z,24.60
2022-08-26T05:53:40.143Z,24.60
2022-08-26T05:56:13.500Z,24.70
2022-08-26T05:58:43.115Z,24.80
2022-08-26T06:01:17.276Z,24.80
2022-08-26T06:03:49.783Z,24.90
2022-08-26T06:06:21.516Z,25.00
2022-08-26T06:08:57.965Z,25.10
2022-08-26T06:11:28.917Z,25.20
2022-08-26T06:14:03.263Z,25.20
2022-08-26T06:16:35.180Z,25.30
2022-08-26T06:19:10.894Z,25.40
2022-08-26T06:21:41.301Z,25.60
2022-08-26T06:24:29.392Z,25.70
2022-08-26T06:27:01.482Z,25.80
2022-08-26T06:29:33.129Z,25.90
2022-08-26T06:32:02.723Z,26.00
2022-08-26T06:34:33.908Z,26.10
2022-08-26T06:37:03.745Z,26.20
2022-08-26T06:39:32.911Z,26.20
2022-08-26T06:42:02.531Z,26.30
2022-08-26T06:44:35.568Z,26.30
2022-08-26T06:47:04.121Z,26.40
2022-08-26T06:49:34.505Z,26.50
2022-08-26T06:52:05.086Z,26.60
2022-08-26T06:54:33.541Z,26.70
2022-08-26T06:57:02.236Z,26.80
2022-08-26T06:59:31.272Z,26.90
2022-08-26T07:01:59.981Z,26.90
2022-08-26T07:04:28.955Z,26.90
2022-08-26T07:06:58.789Z,27.00
2022-08-26T07:09:29.302Z,27.10
2022-08-26T07:11:57.955Z,27.10
2022-08-26T07:14:27.018Z,27.00
2022-08-26T07:16:55.819Z,27.10
2022-08-26T07:19:30.657Z,27.20
2022-08-26T07:22:03.402Z,27.10
2022-08-26T07:24:32.847Z,27.20
2022-08-26T07:27:02.832Z,27.20
2022-08-26T07:29:32.538Z,27.30
2022-08-26T07:32:01.296Z,27.50
2022-08-26T07:34:32.220Z,27.50
2022-08-26T07:37:03.137Z,27.50
2022-08-26T07:39:33.058Z,27.50
2022-08-26T07:42:07.380Z,27.70
2022-08-26T07:44:39.743Z,27.70
2022-08-26T07:47:25.287Z,27.80
2022-08-26T07:49:56.238Z,27.80
2022-08-26T07:52:27.919Z,28.00
2022-08-26T07:54:58.288Z,27.90
2022-08-26T07:57:26.931Z,28.00
2022-08-26T07:59:55.952Z,28.00
2022-08-26T08:02:26.234Z,28.00
2022-08-26T08:04:55.309Z,28.00
2022-08-26T08:07:38.721Z,28.10
2022-08-26T08:10:16.307Z,28.20
2022-08-26T08:12:45.040Z,28.30
2022-08-26T08:15:14.694Z,28.40
2022-08-26T08:17:44.061Z,28.40
2022-08-26T08:20:13.411Z,28.30
2022-08-26T08:22:44.706Z,28.40
2022-08-26T08:25:14.768Z,28.30
2022-08-26T08:27:45.977Z,28.40
2022-08-26T08:30:20.926Z,28.50
2022-08-26T08:32:52.440Z,28.60
2022-08-26T08:35:22.553Z,28.70
2022-08-26T08:37:54.833Z,28.80
2022-08-26T08:40:26.954Z,28.80
2022-08-26T08:43:03.439Z,28.80
2022-08-26T08:45:37.213Z,28.80
2022-08-26T08:48:08.449Z,28.70
2022-08-26T08:50:45.824Z,28.80
2022-08-26T08:53:19.231Z,29.00
2022-08-26T08:56:05.732Z,29.10
2022-08-26T08:58:48.134Z,29.20
2022-08-26T09:01:29.332Z,29.20
2022-08-26T09:04:18.551Z,29.20
2022-08-26T09:06:49.802Z,29.30
2022-08-26T09:09:25.271Z,29.30
2022-08-26T09:11:54.415Z,29.20
2022-08-26T09:14:23.043Z,29.40
2022-08-26T09:17:02.534Z,29.50
2022-08-26T09:19:40.581Z,29.50
2022-08-26T09:22:09.650Z,29.60
2022-08-26T09:24:41.526Z,29.60
2022-08-26T09:27:11.694Z,29.60
2022-08-26T09:29:44.263Z,29.80
2022-08-26T09:32:20.585Z,29.80
2022-08-26T09:34:58.575Z,29.80
2022-08-26T09:37:40.506Z,29.80
2022-08-26T09:40:23.635Z,30.00
2022-08-26T09:43:12.057Z,30.00
2022-08-26T09:45:50.075Z,30.10
2022-08-26T09:48:29.375Z,30.00
2022-08-26T09:51:00.827Z,30.00
2022-08-26T09:53:32.296Z,30.10
2022-08-26T09:56:17.977Z,30.20
2022-08-26T09:58:48.669Z,30.30
2022-08-26T10:01:26.919Z,30.30
2022-08-26T10:04:07.436Z,30.20
2022-08-26T10:06:39.979Z,30.30
2022-08-26T10:09:12.394Z,30.30
2022-08-26T10:11:47.293Z,30.40
2022-08-26T10:14:20.407Z,30.50
2022-08-26T10:16:54.132Z,30.60
2022-08-26T10:19:41.340Z,30.60
2022-08-26T10:22:20.720Z,30.70
2022-08-26T10:24:55.102Z,30.80
2022-08-26T10:27:37.610Z,30.90
2022-08-26T10:30:11.756Z,30.90
2022-08-26T10:32:43.746Z,31.00
2022-08-26T10:35:14.567Z,30.90
2022-08-26T10:37:46.950Z,31.10
2022-08-26T10:40:21.608Z,31.10
2022-08-26T10:42:56.984Z,31.20
2022-08-26T10:45:28.634Z,31.30
2022-08-26T10:48:02.908Z,31.50
2022-08-26T10:50:35.466Z,31.50
2022-08-26T10:53:14.907Z,31.80
2022-08-26T10:55:53.039Z,31.90
2022-08-26T10:58:44.597Z,32.20
2022-08-26T11:01:40.884Z,32.20
2022-08-26T11:04:22.644Z,32.40
2022-08-26T11:07:11.640Z,32.20
2022-08-26T11:09:46.177Z,32.00
2022-08-26T11:12:53.509Z,32.00
2022-08-26T11:16:10.196Z,32.10
2022-08-26T11:18:51.358Z,32.40
2022-08-26T11:22:06.144Z,32.30
2022-08-26T11:25:00.894Z,32.40
2022-08-26T11:28:07.209Z,32.50
2022-08-26T11:30:44.202Z,32.40
2022-08-26T11:33:33.372Z,32.40
2022-08-26T11:36:11.543Z,32.70
2022-08-26T11:38:43.840Z,33.00
2022-08-26T11:41:19.182Z,33.00
2022-08-26T11:43:52.330Z,33.30
2022-08-26T11:46:26.972Z,33.10
2022-08-26T11:49:02.629Z,33.10
2022-08-26T11:51:40.486Z,33.20
2022-08-26T11:54:12.442Z,33.20
2022-08-26T11:56:43.243Z,33.00
2022-08-26T11:59:16.693Z,33.00
2022-08-26T12:01:49.983Z,33.00
2022-08-26T12:04:30.319Z,33.20
2022-08-26T12:07:08.639Z,33.20
2022-08-26T12:09:39.236Z,33.20
2022-08-26T12:12:14.357Z,33.40
2022-08-26T12:14:43.735Z,33.40
2022-08-26T12:17:13.699Z,33.30
2022-08-26T12:19:42.306Z,33.10
2022-08-26T12:22:25.568Z,33.10
2022-08-26T12:24:59.456Z,33.20
2022-08-26T12:27:30.192Z,33.20
2022-08-26T12:30:08.480Z,33.40
2022-08-26T12:32:51.073Z,33.40
2022-08-26T12:35:29.591Z,33.40
2022-08-26T12:37:59.874Z,33.20
2022-08-26T12:40:37.379Z,33.00
2022-08-26T12:43:07.517Z,32.60
2022-08-26T12:45:37.893Z,32.20
2022-08-26T12:48:11.151Z,32.20
2022-08-26T12:50:45.664Z,32.30
2022-08-26T12:53:22.957Z,32.30
2022-08-26T12:55:54.139Z,32.60
2022-08-26T12:58:27.019Z,32.80
2022-08-26T13:00:57.603Z,33.20
2022-08-26T13:03:44.906Z,33.30
2022-08-26T13:06:28.020Z,33.20
2022-08-26T13:08:59.925Z,33.20
2022-08-26T13:11:30.627Z,32.80
2022-08-26T13:14:07.409Z,33.00
2022-08-26T13:16:38.120Z,33.20
2022-08-26T13:19:11.358Z,33.10
2022-08-26T13:21:45.051Z,33.00
2022-08-26T13:24:17.882Z,32.90
2022-08-26T13:26:49.155Z,32.50
2022-08-26T13:29:18.616Z,32.60
2022-08-26T13:31:48.057Z,32.50
2022-08-26T13:34:19.285Z,32.60
2022-08-26T13:36:48.943Z,32.80
2022-08-26T13:39:19.727Z,33.30
2022-08-26T13:41:48.938Z,33.40
2022-08-26T13:44:19.011Z,33.70
2022-08-26T13:46:50.756Z,33.70
2022-08-26T13:49:26.720Z,33.80
2022-08-26T13:51:57.845Z,34.40
2022-08-26T13:54:32.025Z,34.70
2022-08-26T13:57:04.867Z,34.90
2022-08-26T13:59:35.640Z,34.60
2022-08-26T14:02:05.438Z,35.00
2022-08-26T14:04:34.041Z,34.90
2022-08-26T14:07:02.632Z,35.10
2022-08-26T14:09:36.584Z,35.40
2022-08-26T14:12:07.502Z,35.40
2022-08-26T14:14:36.059Z,35.30
2022-08-26T14:17:04.875Z,35.10
2022-08-26T14:19:33.694Z,34.90
2022-08-26T14:22:03.270Z,34.70
2022-08-26T14:24:33.236Z,34.90
2022-08-26T14:27:02.048Z,34.90
2022-08-26T14:29:30.565Z,34.50
2022-08-26T14:32:02.627Z,34.60
2022-08-26T14:34:31.354Z,34.70
2022-08-26T14:36:59.947Z,34.60
2022-08-26T14:39:38.866Z,34.50
2022-08-26T14:42:09.182Z,34.30
2022-08-26T14:44:38.864Z,34.30
2022-08-26T14:47:07.787Z,34.30
2022-08-26T14:49:36.734Z,34.00
2022-08-26T14:52:05.637Z,33.90
2022-08-26T14:54:33.261Z,33.70
2022-08-26T14:57:05.192Z,33.90
2022-08-26T14:59:36.768Z,33.80
2022-08-26T15:02:06.327Z,33.60
2022-08-26T15:04:35.997Z,33.70
2022-08-26T15:07:04.931Z,33.60
2022-08-26T15:09:37.003Z,33.60
2022-08-26T15:12:07.639Z,33.30
2022-08-26T15:14:36.227Z,33.50
2022-08-26T15:17:04.817Z,33.50
2022-08-26T15:19:33.389Z,33.50
2022-08-26T15:22:01.897Z,33.50
2022-08-26T15:24:30.408Z,33.20
2022-08-26T15:26:59.847Z,32.90
2022-08-26T15:29:29.779Z,32.30
2022-08-26T15:32:01.650Z,31.80
2022-08-26T15:34:30.378Z,31.50
2022-08-26T15:36:58.894Z,31.40
2022-08-26T15:39:27.737Z,31.30
2022-08-26T15:41:56.689Z,31.40
2022-08-26T15:44:26.262Z,31.50
2022-08-26T15:46:58.625Z,31.30
2022-08-26T15:49:28.244Z,31.30
2022-08-26T15:51:56.856Z,31.30
2022-08-26T15:54:25.909Z,31.20
2022-08-26T15:56:54.497Z,31.10
2022-08-26T15:59:23.953Z,31.20
2022-08-26T16:01:53.378Z,31.20
2022-08-26T16:04:23.496Z,31.10
2022-08-26T16:06:52.318Z,31.10
2022-08-26T16:09:24.308Z,31.10
2022-08-26T16:11:54.138Z,31.10
2022-08-26T16:14:23.013Z,31.20
2022-08-26T16:16:51.871Z,31.10
2022-08-26T16:19:21.347Z,31.00
2022-08-26T16:21:51.685Z,30.90
2022-08-26T16:24:25.871Z,30.80
2022-08-26T16:26:56.001Z,30.80
2022-08-26T16:29:24.673Z,30.90
2022-08-26T16:31:54.852Z,30.90
2022-08-26T16:34:23.481Z,31.00
2022-08-26T16:36:54.166Z,31.00
2022-08-26T16:39:22.705Z,31.10
2022-08-26T16:41:51.241Z,31.10
2022-08-26T16:44:20.074Z,31.00
2022-08-26T16:46:48.878Z,30.90
2022-08-26T16:49:17.747Z,30.60
2022-08-26T16:51:46.992Z,30.50
2022-08-26T16:54:16.935Z,30.40
2022-08-26T16:56:45.602Z,30.20
2022-08-26T16:59:14.153Z,30.10
2022-08-26T17:01:42.731Z,30.00
2022-08-26T17:04:11.413Z,29.90
2022-08-26T17:06:40.126Z,29.90
2022-08-26T17:09:08.884Z,29.80
2022-08-26T17:11:38.829Z,29.60
2022-08-26T17:14:07.769Z,29.60
2022-08-26T17:16:36.337Z,29.60
2022-08-26T17:19:05.792Z,29.60
2022-08-26T17:21:35.433Z,29.50
2022-08-26T17:24:04.571Z,29.40
2022-08-26T17:26:33.424Z,29.50
2022-08-26T17:29:03.358Z,29.40
2022-08-26T17:31:32.644Z,29.30
2022-08-26T17:34:01.269Z,29.40
2022-08-26T17:36:29.842Z,29.40
2022-08-26T17:38:59.234Z,29.30
2022-08-26T17:41:28.560Z,29.20
2022-08-26T17:43:57.221Z,29.00
2022-08-26T17:46:27.484Z,28.90
2022-08-26T17:48:56.478Z,28.90
2022-08-26T17:51:25.175Z,28.80
2022-08-26T17:53:54.318Z,28.80
2022-08-26T17:56:25.611Z,28.80
2022-08-26T17:58:56.852Z,28.80
2022-08-26T18:01:29.191Z,28.80
2022-08-26T18:04:00.464Z,28.60
2022-08-26T18:06:30.448Z,28.50
2022-08-26T18:08:59.748Z,28.40
2022-08-26T18:11:29.180Z,28.40
2022-08-26T18:13:57.695Z,28.40
2022-08-26T18:16:30.070Z,28.50
2022-08-26T18:18:59.307Z,28.50
2022-08-26T18:21:29.241Z,28.40
2022-08-26T18:23:57.871Z,28.40
2022-08-26T18:26:28.471Z,28.40
2022-08-26T18:28:57.320Z,28.50
2022-08-26T18:31:27.700Z,28.60
2022-08-26T18:33:56.813Z,28.60
2022-08-26T18:36:28.978Z,28.50
2022-08-26T18:38:58.751Z,28.50
2022-08-26T18:41:30.161Z,28.60
2022-08-26T18:43:58.904Z,28.60
2022-08-26T18:46:29.579Z,28.60
2022-08-26T18:48:58.585Z,28.40
2022-08-26T18:51:29.746Z,28.40
2022-08-26T18:53:58.998Z,28.40
2022-08-26T18:56:27.654Z,28.20
2022-08-26T18:58:56.349Z,28.10
2022-08-26T19:01:27.604Z,28.00
2022-08-26T19:03:58.065Z,27.90
2022-08-26T19:06:28.592Z,27.70
2022-08-26T19:08:58.005Z,27.60
2022-08-26T19:11:32.484Z,27.60
2022-08-26T19:14:08.415Z,27.50
2022-08-26T19:16:38.960Z,27.40
2022-08-26T19:19:09.988Z,27.20
2022-08-26T19:21:39.538Z,27.10
2022-08-26T19:24:15.485Z,27.00
2022-08-26T19:26:45.285Z,27.00
2022-08-26T19:29:14.065Z,27.00
2022-08-26T19:31:43.960Z,27.10
2022-08-26T19:34:14.083Z,27.20
2022-08-26T19:36:47.539Z,27.30
2022-08-26T19:39:16.021Z,27.30
2022-08-26T19:41:44.548Z,27.30
2022-08-26T19:44:35.996Z,27.30
2022-08-26T19:47:05.586Z,27.10
2022-08-26T19:49:36.032Z,26.90
2022-08-26T19:52:05.726Z,26.70
2022-08-26T19:54:35.323Z,26.70
2022-08-26T19:57:03.839Z,26.70
2022-08-26T19:59:33.200Z,26.70
2022-08-26T20:02:02.260Z,26.70
2022-08-26T20:04:31.615Z,26.60
2022-08-26T20:07:02.939Z,26.70
2022-08-26T20:09:34.387Z,26.80
2022-08-26T20:12:06.152Z,26.80
2022-08-26T20:14:36.272Z,26.70
2022-08-26T20:17:05.342Z,26.70
2022-08-26T20:19:51.726Z,26.70
2022-08-26T20:22:22.532Z,26.70
2022-08-26T20:24:51.807Z,26.50
2022-08-26T20:27:22.381Z,26.50
2022-08-26T20:29:50.977Z,26.40
2022-08-26T20:32:20.101Z,26.30
2022-08-26T20:34:49.387Z,26.20
2022-08-26T20:37:19.232Z,26.20
2022-08-26T20:39:51.695Z,26.20
2022-08-26T20:42:20.707Z,26.20
2022-08-26T20:44:54.445Z,26.30
2022-08-26T20:47:23.598Z,26.20
2022-08-26T20:49:56.175Z,26.20
2022-08-26T20:52:26.104Z,26.30
2022-08-26T20:54:56.251Z,26.20
2022-08-26T20:57:24.835Z,26.20
2022-08-26T20:59:53.457Z,26.20
2022-08-26T21:02:22.121Z,26.20
2022-08-26T21:04:50.681Z,26.20
2022-08-26T21:07:20.956Z,26.10
2022-08-26T21:09:51.658Z,26.10
2022-08-26T21:12:21.667Z,26.00
2022-08-26T21:14:50.241Z,26.00
2022-08-26T21:17:18.971Z,26.10
2022-08-26T21:19:47.546Z,26.10
2022-08-26T21:22:16.145Z,26.00
2022-08-26T21:24:44.670Z,26.00
2022-08-26T21:27:13.296Z,26.00
2022-08-26T21:29:49.589Z,26.00
2022-08-26T21:32:20.671Z,26.00
2022-08-26T21:34:49.242Z,25.90
2022-08-26T21:37:18.764Z,25.80
2022-08-26T21:39:47.302Z,25.80
2022-08-26T21:42:15.889Z,25.70
2022-08-26T21:44:50.844Z,25.70
2022-08-26T21:47:23.372Z,25.60
2022-08-26T21:49:52.466Z,25.70
2022-08-26T21:52:21.513Z,25.60
2022-08-26T21:54:50.056Z,25.70
2022-08-26T21:57:18.961Z,25.70
2022-08-26T21:59:47.513Z,25.70
2022-08-26T22:02:16.079Z,25.80
2022-08-26T22:04:48.816Z,25.80
2022-08-26T22:07:19.247Z,25.70
2022-08-26T22:09:47.774Z,25.80
2022-08-26T22:12:18.538Z,25.70
2022-08-26T22:14:48.319Z,25.70
2022-08-26T22:17:17.258Z,25.70
2022-08-26T22:19:47.265Z,25.60
2022-08-26T22:22:16.465Z,25.60
2022-08-26T22:24:45.175Z,25.60
2022-08-26T22:27:14.757Z,25.60
2022-08-26T22:29:43.366Z,25.50
2022-08-26T22:32:11.941Z,25.50
2022-08-26T22:34:41.242Z,25.40
2022-08-26T22:37:11.309Z,25.40
2022-08-26T22:39:40.247Z,25.30
2022-08-26T22:42:09.299Z,25.10
2022-08-26T22:44:37.902Z,25.10
2022-08-26T22:47:06.793Z,25.20
2022-08-26T22:49:35.311Z,25.20
2022-08-26T22:52:04.360Z,25.10
2022-08-26T22:54:34.333Z,25.20
2022-08-26T22:57:02.953Z,25.30
2022-08-26T22:59:31.539Z,25.10
2022-08-26T23:02:00.129Z,25.00
2022-08-26T23:04:28.700Z,25.10
2022-08-26T23:06:57.285Z,25.10
2022-08-26T23:09:25.854Z,25.00
2022-08-26T23:11:56.673Z,25.00
2022-08-26T23:14:26.216Z,25.00
2022-08-26T23:16:54.908Z,25.00
2022-08-26T23:19:24.562Z,25.00
2022-08-26T23:21:53.466Z,24.90
2022-08-26T23:24:22.251Z,24.90
2022-08-26T23:26:50.818Z,24.80
2022-08-26T23:29:20.801Z,24.80
2022-08-26T23:31:49.347Z,24.80
2022-08-26T23:34:35.508Z,24.80
2022-08-26T23:37:06.242Z,24.90
2022-08-26T23:39:36.286Z,24.90
2022-08-26T23:42:06.723Z,24.90
2022-08-26T23:44:36.649Z,24.80
2022-08-26T23:47:06.226Z,24.80
2022-08-26T23:49:35.797Z,24.70
2022-08-26T23:52:22.672Z,24.70
2022-08-26T23:54:53.003Z,24.70
2022-08-26T23:57:23.732Z,24.60
2022-08-26T23:59:54.231Z,24.60
